White Bluff, TN (37187)

8:34 AM CST on November 27, 2014 (GMT -0600)
On the Trace | Change Station
CLOSE
Current Station
Personal Weather Station
Location: White Bluff, TN
Elevation: 805 ft
Nearby Weather Stations
Active Advisory: Special Statement

Elev 805 ft 36.11 °N, 87.21 °W | Updated 1 minute ago

Overcast
Overcast
35.3 °F
Feels Like 35 °F
N
2.2
Wind Variable Wind from NW
Gusts 6.9 mph

Today
High -- | Low -- °F
--% Chance of Precip.
Yesterday
High -- | Low -- °F
Precip. -- in
6:37 AM 4:35 PM
Waxing Crescent, 30% visible
Pressure 30.35 in
Visibility 10.0 miles
Clouds Mostly Cloudy 1800 ft
Overcast 2700 ft
Windchill 35 °F
Dew Point 32 °F
Humidity 89%
Rainfall 0.00 in
Snow Depth Not available.
UV 0 out of 12
Pollen .10 out of 12
Air Quality Not available.
Flu Activity Not available.
METAR KBNA 271353Z 34010G19KT 10SM BKN018 OVC027 03/M01 A3034 RMK AO2 SLP276 T00281006

More Conditions Fewer Conditions

Pressure 30.35 in
Visibility 10.0 miles
Clouds Mostly Cloudy 1800 ft
Overcast 2700 ft
Windchill 35 °F
Dew Point 32 °F
Humidity 89%
Rainfall 0.00 in
Snow Depth Not available.
UV 0 out of 12
Pollen .10 out of 12
Air Quality Not available.
Flu Activity Not available.
METAR KBNA 271353Z 34010G19KT 10SM BKN018 OVC027 03/M01 A3034 RMK AO2 SLP276 T00281006

More Conditions Fewer Conditions

10-Day Weather Forecast

Almanac

Astronomy

Nov. 27, 2014 Rise Set
Actual Time
Civil Twilight
Nautical Twilight
Astronomical Twilight
Moon
Length of Visible Light
Length of Day
Tomorrow will be .
, % of the Moon is Illuminated

Today's Extremes

State Highs State Lows

Community

WunderPhotos

Upload Photos

1,774,005 photos uploaded!

WunderBlogs® & News

Nearby

Air Quality

  Air Quality AQ Index Pollutant
Not available.

Snow Depth

Station Depth Elevation

Earthquake Activity

City Distance Mag. Time & Date
Minimum magnitude displayed is 2.5.

Coastal Water Temperatures

Place Temperature

Nearby Weather Stations